Latest Weather Observations for Thredbo Top Station

IDN60901

Issued at 9:51 pm EST Tuesday 24 May 2016 (issued every 10 minutes, with the page automatically refreshed every 10 minutes)

About weather observations | Map of Canberra area stations | Latest observations for Canberra area | Other Formats
Station Details ID: 071032 Name: THREDBO AWS Lat: -36.49 Lon: 148.29 Height: 1957.0 m
Data from the previous 72 hours. | See also: Recent months at Thredbo Top Station
Date/Time
EST
Tmp

°C
App
Tmp
°C
Dew
Point
°C
Rel
Hum
%
Delta-T

°C
Wind Press
QNH
hPa
Press
MSL
hPa
Rain
since
9 am
mm
Dir
 
Spd
km/h
Gust
km/h
Spd
kts
Gust
kts
24/09:34pm 0.4 -8.4 -6.4 60 2.4 W 32 50 17 27 1017.8 1017.5 0.2
24/09:30pm -0.7 -9.3 -3.9 79 1.2 W 32 48 17 26 1017.8 1017.5 0.2
24/09:00pm -0.3 -8.9 -4.4 74 1.5 W 32 52 17 28 1017.8 1017.5 0.2
24/08:46pm -0.2 -8.0 -3.9 76 1.4 W 28 46 15 25 1017.7 1017.3 0.2
24/08:30pm -1.0 -8.6 -2.0 93 0.3 WNW 28 37 15 20 1017.7 1017.3 0.2
24/08:00pm -0.8 -8.4 -1.9 92 0.4 W 28 44 15 24 1017.7 1017.3 0.2
24/07:30pm -0.6 -8.2 -2.2 89 0.6 WNW 28 43 15 23 1017.7 1017.3 0.2
24/07:06pm -0.8 -8.4 -1.8 93 0.4 WNW 28 46 15 25 1017.6 1017.2 0.2
24/07:00pm -0.7 -8.2 -1.5 94 0.3 WNW 28 41 15 22 1017.6 1017.2 0.2
24/06:30pm -0.8 -8.6 -0.9 99 0.0 WNW 30 43 16 23 1017.3 1016.9 0.2
24/06:00pm -0.8 -8.2 -0.9 99 0.0 WNW 28 43 15 23 1017.2 1016.8 0.2
24/05:30pm -0.8 -8.6 -0.9 99 0.0 WNW 30 43 16 23 1017.1 1016.7 0.2
24/05:00pm -0.8 -8.6 -0.9 99 0.0 NW 30 41 16 22 1016.6 1016.2 0.2
24/04:30pm -0.7 -8.1 -0.8 99 0.0 WNW 28 41 15 22 1016.7 1016.3 0.2
24/04:00pm -0.6 -8.4 -0.9 98 0.1 WNW 30 41 16 22 1016.8 1016.4 0.2
24/03:30pm 0.4 -6.7 -1.2 89 0.7 WNW 26 41 14 22 1016.7 1016.3 0.2
24/03:12pm 0.1 -7.8 -1.5 89 0.6 WNW 30 50 16 27 1016.1 1015.7 0.2
24/03:00pm 1.3 -6.3 -1.8 80 1.2 WNW 28 39 15 21 1016.5 1016.1 0.2
24/02:30pm 1.5 -6.2 -2.8 73 1.8 WNW 28 44 15 24 1016.4 1015.9 0.2
24/02:00pm 1.4 -6.5 -1.3 82 1.1 WNW 30 59 16 32 1016.2 1015.8 0.2
24/01:40pm 1.6 -6.0 -1.8 78 1.4 W 28 46 15 25 1016.4 1015.9 0.2
24/01:30pm 1.5 -6.9 -2.6 74 1.7 WNW 32 46 17 25 1016.4 1015.9 0.2
24/01:00pm 0.9 -7.6 -3.0 75 1.6 W 32 43 17 23 1016.5 1016.1 0.2
24/12:30pm 1.1 -7.5 -4.5 66 2.1 W 32 44 17 24 1016.7 1016.3 0.2
24/12:00pm 1.7 -7.3 -5.9 57 2.8 W 33 57 18 31 1016.6 1016.2 0.2
24/11:33am 0.9 -7.7 -4.5 67 2.1 W 32 61 17 33 1016.8 1016.4 0.2
24/11:30am 0.9 -7.8 -4.7 66 2.1 W 32 48 17 26 1017.0 1016.6 0.2
24/11:00am 0.4 -8.2 -4.2 71 1.7 W 32 56 17 30 1017.6 1017.2 0.2
24/10:38am 0.6 -7.3 -5.0 66 2.1 W 28 48 15 26 1017.6 1017.2 0.2
24/10:30am -0.2 -7.9 -2.6 84 0.9 W 28 44 15 24 1017.7 1017.3 0.2
24/10:16am -0.3 -8.0 -3.0 82 1.0 W 28 46 15 25 1017.7 1017.3 0.2
24/10:00am -0.8 -9.0 -3.6 81 1.0 WSW 30 46 16 25 1017.7 1017.3 0.2
24/09:30am -0.9 -8.4 -4.2 78 1.2 W 26 44 14 24 1017.6 1017.2 0.0
24/09:00am -1.2 -9.3 -3.1 87 0.7 WNW 30 48 16 26 1017.1 1016.7 0.0
24/08:30am -1.5 -10.1 -4.2 82 0.9 WNW 32 50 17 27 1017.1 1016.7 0.0
24/08:19am -1.7 -10.2 -3.6 87 0.6 WNW 32 54 17 29 1016.8 1016.4 0.0
24/08:00am -2.0 -10.6 -2.8 94 0.2 WNW 33 46 18 25 1016.8 1016.4 0.0
24/07:30am -2.5 -11.9 -3.2 95 0.1 NW 37 48 20 26 1016.5 1016.1 0.0
24/07:17am -2.7 -12.2 -3.4 95 0.1 NW 37 57 20 31 1016.2 1015.8 0.0
24/07:00am -2.9 -12.0 -3.2 98 0.0 NW 35 50 19 27 1016.2 1015.8 0.0
24/06:30am -2.7 -11.7 -2.8 99 -0.1 NW 35 48 19 26 1016.1 1015.7 0.0
24/06:00am -2.7 -12.1 -3.0 98 0.0 NW 37 50 20 27 1015.6 1015.2 0.0
24/05:30am -2.7 -12.5 -2.8 99 -0.1 NW 39 52 21 28 1015.3 1014.8 0.0
24/05:00am -2.6 -12.4 -2.7 99 -0.1 NW 39 52 21 28 1015.1 1014.7 0.0
24/04:30am -2.1 -11.8 -2.2 99 -0.1 NW 39 50 21 27 1015.6 1015.2 0.0
24/04:00am -2.1 -12.2 -2.2 99 -0.1 NW 41 56 22 30 1015.4 1014.9 0.0
24/03:34am -1.9 -11.9 -2.0 99 -0.1 NW 41 61 22 33 1014.9 1014.4 0.0
24/03:30am -1.9 -11.6 -2.0 99 -0.1 NW 39 52 21 28 1015.0 1014.5 0.0
24/03:00am -1.6 -11.2 -1.7 99 0.0 NW 39 61 21 33 1015.7 1015.3 0.0
24/02:53am -1.6 -11.6 -1.7 99 0.0 NW 41 61 22 33 1015.3 1014.8 0.0
24/02:30am -1.7 -11.0 -1.8 99 0.0 NW 37 54 20 29 1016.0 1015.6 0.0
24/02:03am -1.6 -10.5 -1.7 99 0.0 NW 35 56 19 30 1016.1 1015.7 0.0
24/02:00am -1.4 -9.9 -1.5 99 0.0 NW 33 46 18 25 1016.2 1015.8 0.0
24/01:37am -1.5 -10.0 -1.6 99 0.0 WNW 33 52 18 28 1016.4 1015.9 0.0
24/01:30am -1.5 -10.4 -1.6 99 0.0 WNW 35 50 19 27 1016.2 1015.8 0.0
24/01:00am -1.5 -10.4 -1.6 99 0.0 NW 35 56 19 30 1016.0 1015.6 0.0
24/12:59am -1.5 -10.4 -1.6 99 0.0 NW 35 56 19 30 1016.0 1015.6 0.0
24/12:30am -1.4 -9.7 -1.5 99 0.0 WNW 32 46 17 25 1016.5 1016.1 0.0
24/12:00am -1.6 -11.2 -1.7 99 0.0 NW 39 57 21 31 1016.4 1015.9 0.0
 
Date/Time
EST
Tmp

°C
App
Tmp
°C
Dew
Point
°C
Rel
Hum
%
Delta-T

°C
Wind Press
QNH
hPa
Press
MSL
hPa
Rain
since
9 am
mm
Dir
 
Spd
km/h
Gust
km/h
Spd
kts
Gust
kts
23/11:31pm -1.6 -10.1 -1.7 99 0.0 WNW 33 52 18 28 1016.5 1016.1 0.0
23/11:30pm -1.6 -10.5 -1.7 99 0.0 WNW 35 52 19 28 1016.6 1016.2 0.0
23/11:11pm -1.6 -11.2 -1.7 99 0.0 NW 39 57 21 31 1016.0 1015.6 0.0
23/11:00pm -1.7 -12.3 -1.8 99 0.0 WNW 44 67 24 36 1016.0 1015.6 0.0
23/10:59pm -1.7 -12.1 -1.8 99 0.0 WNW 43 67 23 36 1016.1 1015.7 0.0
23/10:30pm -1.8 -14.9 -1.9 99 -0.1 NW 57 85 31 46 1015.4 1014.9 0.0
23/10:00pm -1.7 -14.8 -1.8 99 0.0 NW 57 78 31 42 1014.9 1014.4 0.0
23/09:30pm -1.8 -13.2 -1.9 99 -0.1 NW 48 69 26 37 1015.6 1015.2 0.0
23/09:00pm -1.7 -13.1 -1.8 99 0.0 WNW 48 76 26 41 1016.4 1015.9 0.0
23/08:30pm -1.6 -12.2 -1.7 99 0.0 WNW 44 70 24 38 1016.0 1015.6 0.0
23/08:00pm -1.4 -12.3 -1.5 99 0.0 WNW 46 69 25 37 1016.2 1015.8 0.0
23/07:30pm -1.4 -12.0 -2.0 96 0.2 WNW 44 63 24 34 1016.4 1015.9 0.0
23/07:00pm -1.2 -11.8 -1.5 98 0.1 WNW 44 67 24 36 1016.1 1015.7 0.0
23/06:30pm -1.4 -12.7 -1.5 99 0.0 NW 48 67 26 36 1016.0 1015.6 0.0
23/06:00pm -1.3 -11.8 -1.4 99 0.0 NW 44 63 24 34 1015.9 1015.4 0.0
23/05:30pm -1.1 -11.1 -1.9 94 0.3 NW 41 59 22 32 1015.5 1015.0 0.0
23/05:00pm -0.9 -10.1 -1.5 96 0.2 NW 37 56 20 30 1015.5 1015.0 0.0
23/04:30pm -0.5 -10.5 -1.8 91 0.5 WNW 41 70 22 38 1015.6 1015.2 0.0
23/04:00pm -0.4 -10.8 -2.0 89 0.6 NW 43 65 23 35 1015.1 1014.7 0.0
23/03:30pm -0.1 -9.2 -0.9 94 0.3 NW 37 65 20 35 1014.8 1014.3 0.0
23/03:06pm -0.1 -9.2 -0.7 96 0.2 NW 37 56 20 30 1014.7 1014.2 0.0
23/03:00pm 0.4 -8.4 -1.5 87 0.8 NW 35 52 19 28 1014.7 1014.2 0.0
23/02:30pm -0.3 -10.2 -1.1 94 0.3 NW 41 67 22 36 1014.3 1013.8 0.0
23/02:00pm 0.1 -9.8 -0.9 93 0.4 WNW 41 63 22 34 1014.7 1014.2 0.0
23/01:30pm 0.1 -10.2 -1.2 91 0.5 WNW 43 70 23 38 1014.4 1013.9 0.0
23/01:15pm -0.2 -10.5 -0.8 96 0.2 NW 43 72 23 39 1014.5 1014.0 0.0
23/01:00pm 0.0 -13.0 -1.7 88 0.7 NW 57 85 31 46 - - 0.0
23/12:30pm 0.2 -11.7 -0.4 96 0.3 NW 52 78 28 42 - - 0.0
23/12:00pm -0.7 -13.5 -1.3 96 0.2 NW 56 78 30 42 - - 0.0
23/11:30am -0.5 -11.7 -0.6 99 0.0 NW 48 74 26 40 1014.3 1013.8 0.0
23/11:00am -0.1 -12.1 -0.8 95 0.3 NW 52 76 28 41 1014.4 1013.9 0.0
23/10:30am -0.2 -10.6 -0.3 99 0.0 NW 44 80 24 43 1014.8 1014.3 0.0
23/10:00am -0.3 -11.1 -0.4 99 0.0 NW 46 69 25 37 1014.5 1014.0 0.0
23/09:30am -0.2 -10.6 -0.3 99 0.0 NW 44 67 24 36 1014.7 1014.2 0.0
23/09:00am 0.4 -8.2 0.0 97 0.2 NW 35 65 19 35 1015.7 1015.3 13.8
23/08:30am 1.1 -7.0 1.0 99 0.0 NW 33 59 18 32 1016.1 1015.7 13.8
23/08:17am 1.6 -7.2 1.5 99 0.0 NW 37 76 20 41 1015.7 1015.3 13.8
23/08:05am 2.1 -6.2 2.0 99 0.0 WNW 35 54 19 29 1015.7 1015.3 13.8
23/08:00am 2.6 -6.0 2.5 99 0.0 WNW 37 57 20 31 1015.6 1015.2 13.6
23/07:59am 2.6 -6.0 2.5 99 0.0 WNW 37 57 20 31 1015.5 1015.0 13.4
23/07:30am 4.7 -5.2 4.6 99 0.0 NNW 46 67 25 36 1014.4 1013.9 9.4
23/07:00am 5.0 -6.4 4.9 99 0.0 NNW 54 78 29 42 - - 5.8
23/06:30am 5.2 -8.3 5.1 99 0.0 NNW 65 93 35 50 - - 4.4
23/06:25am 5.5 -7.5 5.4 99 0.0 NNW 63 93 34 50 - - 4.2
23/06:02am 5.2 -6.2 5.1 99 0.0 NNW 54 72 29 39 - - 3.2
23/06:00am 5.2 -6.5 5.1 99 0.0 NNW 56 72 30 39 - - 3.0
23/05:30am 4.8 -9.1 4.7 99 0.0 NNW 67 87 36 47 - - 2.0
23/05:00am 5.1 -10.1 5.0 99 0.0 NNW 74 96 40 52 - - 0.8
23/04:30am 5.3 -11.4 5.2 99 0.0 NNW 82 106 44 57 - - 0.6
23/04:00am 5.6 -10.6 5.5 99 0.0 NNW 80 102 43 55 - - 0.2
23/03:30am 5.8 -10.8 5.7 99 0.0 NNW 82 111 44 60 - - 0.0
23/03:00am 5.9 -11.2 5.8 99 0.1 NNW 85 117 46 63 - - 0.0
23/02:30am 6.4 -10.2 6.3 99 0.1 NNW 83 107 45 58 - - 0.0
23/02:00am 6.1 -10.6 6.0 99 0.1 NNW 83 106 45 57 - - 0.0
23/01:30am 6.2 -8.4 6.1 99 0.1 NNW 72 96 39 52 1015.1 1014.7 0.0
23/01:22am 6.3 -7.3 6.2 99 0.1 NNW 67 93 36 50 1015.3 1014.8 0.0
23/01:00am 6.5 -5.0 6.4 99 0.1 NNW 56 76 30 41 1017.6 1017.2 0.0
23/12:30am 6.6 -2.4 6.2 97 0.2 NNW 43 65 23 35 1019.6 1019.4 0.0
23/12:00am 6.5 -3.2 5.9 96 0.3 NNW 46 67 25 36 1020.7 1020.5 0.0
 
Date/Time
EST
Tmp

°C
App
Tmp
°C
Dew
Point
°C
Rel
Hum
%
Delta-T

°C
Wind Press
QNH
hPa
Press
MSL
hPa
Rain
since
9 am
mm
Dir
 
Spd
km/h
Gust
km/h
Spd
kts
Gust
kts
22/11:54pm 6.6 -3.5 5.9 95 0.4 NNW 48 67 26 36 1020.4 1020.1 0.0
22/11:30pm 6.7 -5.9 5.7 93 0.5 NNW 61 76 33 41 1019.5 1019.2 0.0
22/11:22pm 6.7 -7.5 5.2 90 0.7 NNW 69 87 37 47 1019.0 1018.7 0.0
22/11:00pm 6.6 -8.8 6.0 96 0.3 NW 76 89 41 48 1018.2 1017.8 0.0
22/10:30pm 6.7 -7.9 5.8 94 0.5 NW 72 85 39 46 1018.7 1018.3 0.0
22/10:17pm 6.5 -6.7 6.2 98 0.2 NNW 65 83 35 45 1019.5 1019.2 0.0
22/10:00pm 6.5 -7.7 5.0 90 0.7 NNW 69 80 37 43 1019.5 1019.2 0.0
22/09:30pm 6.4 -9.0 3.9 84 1.2 NNW 74 87 40 47 1019.1 1018.8 0.0
22/09:13pm 6.6 -11.2 2.3 74 2.0 NW 85 104 46 56 1018.4 1018.1 0.0
22/09:00pm 6.3 -12.0 3.6 83 1.3 NW 89 100 48 54 1017.4 1017.1 0.0
22/08:30pm 7.0 -11.2 -0.7 58 3.4 NW 85 100 46 54 1017.3 1016.9 0.0
22/08:00pm 7.0 -11.6 -0.9 57 3.4 NW 87 107 47 58 1016.6 1016.2 0.0
22/07:30pm 7.1 -10.9 -1.6 54 3.7 NW 83 100 45 54 1017.2 1016.8 0.0
22/07:00pm 7.1 -10.7 -1.6 54 3.7 NW 82 98 44 53 1018.0 1017.7 0.0
22/06:30pm 7.3 -10.5 -1.6 53 3.8 NW 82 93 44 50 1018.5 1018.2 0.0
22/06:00pm 7.3 -10.7 -1.9 52 3.9 NW 83 93 45 50 1018.3 1018.0 0.0
22/05:30pm 7.2 -10.6 -1.5 54 3.7 NW 82 91 44 49 1018.4 1018.1 0.0
22/05:00pm 7.4 -7.6 -1.8 52 3.9 NW 67 82 36 44 1019.4 1019.1 0.0
22/04:43pm 7.5 -5.9 -1.2 54 3.8 NNW 59 80 32 43 1020.2 1020.0 0.0
22/04:30pm 7.6 -5.4 -1.4 53 3.9 NNW 57 70 31 38 1020.8 1020.6 0.0
22/04:00pm 7.8 -2.1 -0.7 55 3.7 NNW 41 63 22 34 1022.2 1022.0 0.0
22/03:30pm 7.9 -0.2 -0.6 55 3.7 NNW 32 52 17 28 1023.1 1023.0 0.0
22/03:00pm 8.4 -0.2 0.1 56 3.7 NNW 35 54 19 29 1023.5 1023.4 0.0
22/02:31pm 8.8 -0.9 0.5 56 3.8 NNW 41 59 22 32 1023.3 1023.2 0.0
22/02:30pm 8.9 -0.8 0.6 56 3.8 NNW 41 54 22 29 1023.5 1023.4 0.0
22/02:16pm 8.8 -1.8 1.0 58 3.6 NNW 46 65 25 35 1023.1 1023.0 0.0
22/02:00pm 8.9 -2.4 1.3 59 3.5 NNW 50 65 27 35 1023.0 1022.9 0.0
22/01:30pm 9.4 -1.8 1.6 58 3.7 NNW 50 61 27 33 1023.6 1023.5 0.0
22/01:00pm 8.7 -3.4 1.1 59 3.5 NW 54 70 29 38 1023.4 1023.3 0.0
22/12:40pm 8.7 -4.1 0.2 55 3.8 NNW 57 76 31 41 1023.3 1023.2 0.0
22/12:30pm 8.8 -3.9 0.5 56 3.8 NW 57 70 31 38 1023.3 1023.2 0.0
22/12:00pm 8.8 -3.4 0.0 54 3.9 NNW 54 65 29 35 1023.9 1023.8 0.0
22/11:30am 9.2 -2.6 -2.4 44 5.0 NNW 50 63 27 34 1024.6 1024.5 0.0
22/11:00am 9.1 -3.7 -4.1 39 5.4 NNW 54 67 29 36 1025.3 1025.3 0.0
22/10:47am 9.2 -3.6 -4.4 38 5.5 NNW 54 72 29 39 1025.2 1025.2 0.0
22/10:30am 8.9 -4.6 -5.3 36 5.7 NNW 57 67 31 36 1025.2 1025.2 0.0
22/10:00am 8.8 -3.7 -5.4 36 5.6 NW 52 69 28 37 1025.4 1025.4 0.0
22/09:30am 9.2 -3.0 -5.8 34 5.9 NW 50 67 27 36 1025.7 1025.7 0.0
22/09:00am 9.6 -2.9 -4.7 36 5.8 NW 52 61 28 33 1025.8 1025.8 0.0
22/08:30am 9.2 -3.7 -5.4 35 5.8 NW 54 63 29 34 1025.8 1025.8 0.0
22/08:00am 8.6 -4.9 -7.1 32 5.9 NW 56 65 30 35 1025.3 1025.3 0.0
22/07:30am 8.4 -5.1 -8.1 30 6.1 NW 56 67 30 36 1025.4 1025.4 0.0
22/07:00am 8.3 -3.7 -8.2 30 6.1 NW 48 57 26 31 1025.3 1025.3 0.0
22/06:30am 9.1 -3.6 -7.1 31 6.2 NW 52 57 28 31 1025.2 1025.2 0.0
22/06:00am 9.0 -3.7 -7.2 31 6.2 NW 52 56 28 30 1025.1 1025.1 0.0
22/05:30am 8.9 -3.1 -7.7 30 6.3 NNW 48 52 26 28 1025.2 1025.2 0.0
22/05:00am 9.3 -2.6 -6.5 32 6.1 NW 48 52 26 28 1025.2 1025.2 0.0
22/04:30am 9.2 -2.0 -7.0 31 6.2 NW 44 54 24 29 1025.3 1025.3 0.0
22/04:00am 8.5 -2.8 -8.1 30 6.1 NNW 44 48 24 26 1025.4 1025.4 0.0
22/03:30am 7.4 -3.0 -9.0 30 5.9 NNW 39 44 21 24 1025.9 1025.9 0.0
22/03:00am 7.6 -2.0 -8.4 31 5.8 NNW 35 37 19 20 1026.3 1026.3 0.0
22/02:30am 7.1 -2.0 -6.9 36 5.3 NNW 33 37 18 20 1026.4 1026.4 0.0
22/02:00am 7.4 -1.6 -6.7 36 5.3 NNW 33 37 18 20 1026.7 1026.7 0.0
22/01:30am 8.1 -0.7 -6.4 35 5.6 NNW 32 35 17 19 1026.8 1026.8 0.0
22/01:00am 7.9 -1.1 -6.6 35 5.5 NNW 33 37 18 20 1026.9 1027.0 0.0
22/12:30am 8.2 -0.8 -6.7 34 5.7 NNW 33 37 18 20 1027.1 1027.2 0.0
22/12:00am 8.1 0.0 -6.4 35 5.5 NW 28 32 15 17 1027.7 1027.8 0.0
 
Date/Time
EST
Tmp

°C
App
Tmp
°C
Dew
Point
°C
Rel
Hum
%
Delta-T

°C
Wind Press
QNH
hPa
Press
MSL
hPa
Rain
since
9 am
mm
Dir
 
Spd
km/h
Gust
km/h
Spd
kts
Gust
kts
21/11:30pm 8.1 -0.3 -5.7 37 5.4 NNW 30 32 16 17 1028.0 1028.1 0.0
21/11:00pm 8.4 0.4 -5.4 37 5.4 NW 28 32 15 17 1028.1 1028.2 0.0
21/10:30pm 7.3 0.1 -5.4 40 5.0 NW 24 26 13 14 1028.3 1028.5 0.0
21/10:00pm 6.1 -0.1 -5.2 44 4.3 WNW 19 20 10 11 1028.5 1028.6 0.0

Latest Capital City Observations: Canberra | Sydney | Melbourne | Brisbane | Adelaide | Perth | Hobart | Darwin

Other Formats:

Comma delimited format used in spreadsheet applications
http://www.bom.gov.au/fwo/IDN60903/IDN60903.95909.axf

JavaScript Object Notation format (JSON) in row-major order
http://www.bom.gov.au/fwo/IDN60903/IDN60903.95909.json